Time;durP1;ratioP1;P1;durP2;ratioP2;P2;SDS_P1;SDS_P2;PMS_P1;PMS_P2;Temp;Humidity;BMP_temperature;BMP_pressure;BME280_temperature;BME280_humidity;BME280_pressure;Samples;Min_cycle;Max_cycle;Signal;HPM_P1;HPM_P2
2021/06/11 00:01:53;;;;;;;5.37;3.67;;;20.30;81.80;;;;;;5062304;28;20449;-75
2021/06/11 00:04:20;;;;;;;5.90;4.17;;;20.30;82.30;;;;;;5056587;28;20446;-74
2021/06/11 00:06:47;;;;;;;8.37;3.80;;;20.20;82.80;;;;;;5054983;28;20461;-74
2021/06/11 00:09:14;;;;;;;10.17;4.00;;;20.20;83.10;;;;;;5051829;28;20473;-76
2021/06/11 00:11:42;;;;;;;7.43;4.10;;;20.20;83.70;;;;;;5038644;28;20485;-73
2021/06/11 00:14:09;;;;;;;5.13;4.10;;;20.10;84.00;;;;;;5074721;28;20466;-73
2021/06/11 00:16:36;;;;;;;6.50;4.20;;;20.10;84.40;;;;;;5070606;28;20460;-75
2021/06/11 00:19:03;;;;;;;6.87;4.70;;;20.10;84.80;;;;;;5075230;28;20473;-75
2021/06/11 00:21:30;;;;;;;8.20;4.47;;;20.10;85.60;;;;;;5072420;28;20459;-76
2021/06/11 00:23:57;;;;;;;10.63;4.47;;;20.00;86.80;;;;;;5062523;28;20435;-75
2021/06/11 00:26:24;;;;;;;5.43;4.70;;;20.00;86.90;;;;;;5070452;28;20880;-75
2021/06/11 00:28:50;;;;;;;13.20;5.37;;;20.00;87.40;;;;;;5063737;28;20821;-75
2021/06/11 00:31:17;;;;;;;5.87;4.67;;;19.90;87.90;;;;;;5052491;28;20924;-74
2021/06/11 00:33:44;;;;;;;8.80;4.67;;;19.90;88.50;;;;;;5070188;28;20534;-75
2021/06/11 00:36:11;;;;;;;5.43;4.77;;;19.80;89.00;;;;;;5053437;28;20475;-76
2021/06/11 00:38:38;;;;;;;8.70;5.00;;;19.80;89.70;;;;;;5054226;28;20451;-75
2021/06/11 00:41:05;;;;;;;7.33;5.27;;;19.80;90.00;;;;;;5053638;28;20465;-76
2021/06/11 00:43:32;;;;;;;9.60;5.40;;;19.70;90.40;;;;;;5057816;28;20988;-75
2021/06/11 00:45:59;;;;;;;7.37;4.87;;;19.70;90.60;;;;;;5065288;28;20477;-75
2021/06/11 00:48:26;;;;;;;5.70;5.10;;;19.70;90.80;;;;;;5088464;28;20494;-75
2021/06/11 00:50:53;;;;;;;9.43;5.70;;;19.70;91.00;;;;;;5062369;28;20476;-74
2021/06/11 00:53:20;;;;;;;8.40;5.83;;;19.70;91.00;;;;;;5058989;28;20526;-75
2021/06/11 00:55:48;;;;;;;7.70;6.07;;;19.70;91.20;;;;;;5054810;28;20469;-75
2021/06/11 00:58:18;;;;;;;6.93;6.03;;;19.60;91.60;;;;;;5072278;28;20452;-73
2021/06/11 01:00:47;;;;;;;7.30;5.67;;;19.60;92.10;;;;;;5056348;28;20555;-76
2021/06/11 01:03:15;;;;;;;8.53;5.70;;;19.50;92.30;;;;;;5067705;28;20431;-73
2021/06/11 01:05:42;;;;;;;7.87;6.00;;;19.60;92.20;;;;;;5069347;28;20467;-76
2021/06/11 01:08:11;;;;;;;7.60;6.80;;;19.60;92.60;;;;;;5058788;28;20488;-75
2021/06/11 01:10:38;;;;;;;6.43;5.40;;;19.60;92.60;;;;;;5043491;28;20482;-74
2021/06/11 01:13:06;;;;;;;9.00;6.03;;;19.50;92.70;;;;;;5072091;28;20440;-73
2021/06/11 01:15:33;;;;;;;7.20;5.93;;;19.50;93.10;;;;;;5067057;28;20468;-76
2021/06/11 01:18:00;;;;;;;8.20;5.33;;;19.50;93.30;;;;;;5058385;28;20454;-76
2021/06/11 01:20:27;;;;;;;9.50;7.57;;;19.50;93.30;;;;;;5067108;28;20459;-76
2021/06/11 01:23:15;;;;;;;8.20;6.77;;;19.50;93.40;;;;;;5070835;28;20891;-74
2021/06/11 01:25:51;;;;;;;6.60;5.83;;;19.50;93.50;;;;;;5070044;28;20465;-77
2021/06/11 01:28:20;;;;;;;11.67;7.17;;;19.50;93.70;;;;;;5072699;28;20455;-77
2021/06/11 01:30:50;;;;;;;8.33;6.03;;;19.50;94.00;;;;;;5051964;28;20875;-76
2021/06/11 01:33:19;;;;;;;10.17;5.93;;;19.50;93.90;;;;;;5068048;28;20797;-77
2021/06/11 01:35:52;;;;;;;7.60;6.47;;;19.50;94.10;;;;;;5077463;28;20996;-76
2021/06/11 01:38:22;;;;;;;9.47;7.30;;;19.40;94.20;;;;;;5053060;28;20494;-76
2021/06/11 01:40:52;;;;;;;10.03;6.70;;;19.40;94.10;;;;;;5069766;28;20481;-76
2021/06/11 01:43:22;;;;;;;8.07;5.93;;;19.40;94.20;;;;;;5057407;28;20431;-76
2021/06/11 01:45:49;;;;;;;10.50;7.20;;;19.40;94.40;;;;;;5054717;28;20467;-74
2021/06/11 01:48:17;;;;;;;7.30;6.50;;;19.40;94.60;;;;;;5054522;28;20490;-74
2021/06/11 01:50:45;;;;;;;7.80;7.07;;;19.40;94.80;;;;;;5062079;28;20835;-76
2021/06/11 01:53:14;;;;;;;7.00;6.30;;;19.30;94.80;;;;;;5072517;28;20477;-74
2021/06/11 01:55:42;;;;;;;8.33;6.10;;;19.30;95.10;;;;;;5059737;28;20822;-75
2021/06/11 01:58:10;;;;;;;9.70;6.40;;;19.30;95.30;;;;;;5053753;28;21059;-76
2021/06/11 02:00:38;;;;;;;6.80;5.73;;;19.30;95.50;;;;;;5057251;28;20466;-74
2021/06/11 02:03:06;;;;;;;7.63;5.70;;;19.30;95.80;;;;;;5065396;28;20841;-73
2021/06/11 02:05:34;;;;;;;9.27;6.57;;;19.20;96.10;;;;;;5062926;28;21023;-73
2021/06/11 02:08:02;;;;;;;9.20;5.40;;;19.20;96.30;;;;;;5070812;28;20458;-76
2021/06/11 02:10:30;;;;;;;8.97;7.07;;;19.10;96.90;;;;;;5052712;28;20536;-74
2021/06/11 02:12:58;;;;;;;9.23;6.13;;;19.10;96.50;;;;;;5052450;28;20531;-73
2021/06/11 02:15:28;;;;;;;7.60;6.80;;;19.10;96.50;;;;;;5062775;28;20560;-73
2021/06/11 02:17:57;;;;;;;7.93;6.73;;;19.10;96.90;;;;;;5054590;28;21002;-76
2021/06/11 02:20:26;;;;;;;7.20;6.27;;;19.00;96.90;;;;;;5087168;28;20569;-76
2021/06/11 02:22:53;;;;;;;8.70;7.30;;;19.10;97.10;;;;;;5067193;28;20449;-75
2021/06/11 02:25:25;;;;;;;8.97;6.67;;;19.00;97.30;;;;;;5050859;28;20463;-76
2021/06/11 02:27:57;;;;;;;8.33;6.00;;;19.00;97.20;;;;;;5059729;28;21146;-76
2021/06/11 02:30:25;;;;;;;8.83;7.00;;;19.00;97.40;;;;;;5052255;28;20482;-74
2021/06/11 02:32:52;;;;;;;7.27;6.57;;;19.00;97.60;;;;;;5062902;28;20503;-75
2021/06/11 02:35:24;;;;;;;7.43;6.63;;;18.90;97.70;;;;;;5057122;28;20463;-75
2021/06/11 02:37:53;;;;;;;7.77;6.13;;;18.90;98.00;;;;;;5074109;28;20471;-74
2021/06/11 02:40:21;;;;;;;9.87;7.33;;;18.80;98.40;;;;;;5064903;28;20470;-74
2021/06/11 02:42:53;;;;;;;7.00;6.40;;;18.80;98.80;;;;;;5055061;28;20478;-74
2021/06/11 02:45:25;;;;;;;8.80;6.90;;;18.80;98.80;;;;;;5056516;28;20467;-73
2021/06/11 02:47:51;;;;;;;8.67;7.77;;;18.80;99.10;;;;;;5069493;28;20545;-76
2021/06/11 02:50:45;;;;;;;9.70;7.97;;;18.70;99.40;;;;;;5058724;28;20469;-74
2021/06/11 02:53:14;;;;;;;11.70;8.03;;;18.70;99.40;;;;;;5046274;28;20535;-74
2021/06/11 02:55:43;;;;;;;8.47;7.60;;;18.70;99.50;;;;;;5058384;28;20459;-75
2021/06/11 02:58:18;;;;;;;11.20;8.03;;;18.70;99.60;;;;;;5065911;28;20456;-75
2021/06/11 03:00:47;;;;;;;12.10;8.03;;;18.70;99.60;;;;;;5056865;28;20465;-74
2021/06/11 03:03:22;;;;;;;11.10;7.90;;;18.70;99.70;;;;;;5051172;28;20527;-74
2021/06/11 03:05:55;;;;;;;9.53;8.07;;;18.70;99.90;;;;;;5049580;28;20643;-74
2021/06/11 03:08:29;;;;;;;9.57;8.10;;;18.60;99.90;;;;;;5059169;28;21057;-74
2021/06/11 03:11:03;;;;;;;9.37;8.37;;;18.60;99.90;;;;;;5059492;28;20813;-74
2021/06/11 03:13:31;;;;;;;13.07;8.20;;;18.60;99.90;;;;;;5052638;28;20473;-74
2021/06/11 03:15:59;;;;;;;7.90;7.13;;;18.50;99.90;;;;;;5068687;28;21010;-74
2021/06/11 03:18:50;;;;;;;8.50;7.60;;;18.50;99.90;;;;;;5086952;28;20451;-74
2021/06/11 03:21:32;;;;;;;8.97;7.90;;;18.50;99.90;;;;;;5049175;28;20474;-74
2021/06/11 03:24:15;;;;;;;8.60;7.47;;;18.50;99.90;;;;;;5045428;28;20565;-73
2021/06/11 03:26:52;;;;;;;10.30;9.10;;;18.40;99.90;;;;;;5056866;28;20470;-74
2021/06/11 03:29:26;;;;;;;11.97;7.90;;;18.40;99.90;;;;;;5050559;28;20560;-75
2021/06/11 03:31:57;;;;;;;10.30;8.47;;;18.40;99.90;;;;;;5071313;28;20558;-74
2021/06/11 03:34:32;;;;;;;10.97;8.73;;;18.40;99.90;;;;;;5058937;28;20466;-73
2021/06/11 03:37:06;;;;;;;13.07;8.30;;;18.40;99.90;;;;;;5057659;28;20482;-74
2021/06/11 03:39:40;;;;;;;9.10;8.20;;;18.40;99.90;;;;;;5068550;28;20998;-74
2021/06/11 03:42:09;;;;;;;10.57;8.60;;;18.40;99.90;;;;;;5066502;28;20431;-74
2021/06/11 03:44:42;;;;;;;9.50;8.00;;;18.40;99.90;;;;;;5058036;28;20436;-73
2021/06/11 03:47:15;;;;;;;10.00;9.00;;;18.40;99.90;;;;;;5074951;28;20530;-74
2021/06/11 03:49:45;;;;;;;10.97;9.53;;;18.40;99.90;;;;;;5087271;28;20702;-74
2021/06/11 03:52:12;;;;;;;9.80;8.50;;;18.40;99.90;;;;;;5066846;28;20974;-74
2021/06/11 03:54:44;;;;;;;15.00;10.13;;;18.50;99.90;;;;;;5074199;28;20438;-74
2021/06/11 03:57:15;;;;;;;10.83;9.80;;;18.40;99.90;;;;;;5076287;28;20430;-74
2021/06/11 03:59:46;;;;;;;11.70;9.90;;;18.40;99.90;;;;;;5064548;28;20446;-74
2021/06/11 04:02:15;;;;;;;10.63;9.33;;;18.50;99.90;;;;;;5072341;28;20517;-74
2021/06/11 04:04:43;;;;;;;13.20;9.70;;;18.50;99.90;;;;;;5074422;28;20461;-74
2021/06/11 04:07:16;;;;;;;13.80;12.30;;;18.40;99.90;;;;;;5072132;28;20464;-74
2021/06/11 04:09:48;;;;;;;13.37;11.60;;;18.50;99.90;;;;;;5071270;28;20470;-74
2021/06/11 04:12:39;;;;;;;11.47;10.30;;;18.50;99.90;;;;;;5055159;28;20514;-74
2021/06/11 04:15:08;;;;;;;12.60;11.30;;;18.50;99.90;;;;;;5043465;28;20470;-74
2021/06/11 04:17:41;;;;;;;12.20;10.90;;;18.50;99.90;;;;;;5063165;28;20458;-76
2021/06/11 04:20:22;;;;;;;12.57;11.27;;;18.50;99.90;;;;;;5075225;28;20454;-74
2021/06/11 04:22:50;;;;;;;11.80;10.60;;;18.60;99.90;;;;;;5070491;28;20443;-74
2021/06/11 04:25:18;;;;;;;13.27;11.97;;;18.50;99.90;;;;;;5085649;28;20497;-73
2021/06/11 04:27:50;;;;;;;16.00;11.73;;;18.50;99.90;;;;;;5063007;28;20451;-74
2021/06/11 04:30:18;;;;;;;13.00;11.70;;;18.50;99.90;;;;;;5056018;28;20475;-74
2021/06/11 04:32:45;;;;;;;15.33;11.97;;;18.60;99.90;;;;;;5063256;28;20477;-74
2021/06/11 04:35:12;;;;;;;13.87;10.97;;;18.60;99.90;;;;;;5067055;28;20478;-74
2021/06/11 04:37:39;;;;;;;14.57;12.27;;;18.60;99.90;;;;;;5064981;28;20466;-73
2021/06/11 04:40:07;;;;;;;13.73;11.23;;;18.70;99.90;;;;;;5089461;28;20457;-74
2021/06/11 04:42:35;;;;;;;13.43;12.03;;;18.60;99.90;;;;;;5056279;28;20435;-74
2021/06/11 04:45:03;;;;;;;12.97;11.27;;;18.70;99.90;;;;;;5062520;28;20492;-74
2021/06/11 04:47:37;;;;;;;11.67;10.47;;;18.70;99.90;;;;;;5089601;28;20451;-74
2021/06/11 04:50:07;;;;;;;13.53;11.00;;;18.80;99.90;;;;;;5058804;28;20474;-75
2021/06/11 04:52:34;;;;;;;12.80;11.27;;;18.80;99.90;;;;;;5070649;28;20446;-74
2021/06/11 04:55:05;;;;;;;11.80;10.57;;;18.80;99.90;;;;;;5067304;28;20467;-75
2021/06/11 04:57:32;;;;;;;13.20;11.87;;;18.80;99.90;;;;;;5077241;28;20823;-74
2021/06/11 05:00:01;;;;;;;12.43;11.10;;;18.80;99.90;;;;;;5088167;28;20462;-75
2021/06/11 05:02:28;;;;;;;14.00;10.40;;;18.90;99.90;;;;;;5072238;28;20434;-74
2021/06/11 05:04:55;;;;;;;12.23;10.80;;;18.90;99.90;;;;;;5058788;28;20454;-74
2021/06/11 05:07:21;;;;;;;12.60;11.40;;;19.00;99.90;;;;;;5071667;28;20484;-74
2021/06/11 05:09:48;;;;;;;17.30;12.70;;;19.10;99.90;;;;;;5071120;28;20959;-74
2021/06/11 05:12:16;;;;;;;14.30;11.60;;;19.00;99.90;;;;;;5053804;28;20438;-75
2021/06/11 05:14:45;;;;;;;14.50;12.70;;;19.10;99.90;;;;;;5057074;28;20447;-73
2021/06/11 05:17:13;;;;;;;19.80;12.30;;;19.10;99.90;;;;;;5053383;28;20463;-74
2021/06/11 05:19:41;;;;;;;17.47;13.17;;;19.20;99.90;;;;;;5052941;28;20448;-75
2021/06/11 05:22:08;;;;;;;13.10;11.80;;;19.30;99.90;;;;;;5056470;28;20487;-74
2021/06/11 05:24:38;;;;;;;17.17;12.73;;;19.30;99.90;;;;;;5064283;28;20444;-74
2021/06/11 05:27:05;;;;;;;15.43;13.83;;;19.30;99.90;;;;;;5064248;28;20437;-75
2021/06/11 05:29:33;;;;;;;15.97;14.03;;;19.30;99.90;;;;;;5085880;28;20430;-75
2021/06/11 05:32:03;;;;;;;13.67;12.27;;;19.40;99.90;;;;;;5042002;28;20454;-75
2021/06/11 05:34:31;;;;;;;17.80;14.17;;;19.50;99.90;;;;;;5063557;28;20435;-74
2021/06/11 05:36:58;;;;;;;17.50;15.17;;;19.60;99.90;;;;;;5056682;28;21006;-73
2021/06/11 05:39:25;;;;;;;17.23;15.47;;;19.60;99.90;;;;;;5064121;28;21011;-75
2021/06/11 05:41:51;;;;;;;15.90;14.30;;;19.70;99.90;;;;;;5062628;28;20430;-73
2021/06/11 05:44:18;;;;;;;18.37;15.57;;;19.70;99.90;;;;;;5073233;28;20434;-73
2021/06/11 05:46:45;;;;;;;15.97;14.00;;;19.80;99.90;;;;;;5061957;28;20467;-74
2021/06/11 05:49:15;;;;;;;18.03;16.23;;;19.90;99.90;;;;;;5065942;28;20992;-74
2021/06/11 05:51:42;;;;;;;16.67;14.97;;;20.00;99.90;;;;;;5060624;28;20555;-72
2021/06/11 05:54:09;;;;;;;18.60;15.73;;;20.10;99.90;;;;;;5071492;28;20433;-73
2021/06/11 05:56:37;;;;;;;17.43;15.63;;;20.20;99.90;;;;;;5071807;28;20987;-73
2021/06/11 05:59:08;;;;;;;19.87;17.00;;;20.20;99.90;;;;;;5056338;28;20454;-77
2021/06/11 06:01:35;;;;;;;17.97;16.23;;;20.40;99.90;;;;;;5053500;28;20477;-74
2021/06/11 06:04:02;;;;;;;19.70;16.17;;;20.50;99.90;;;;;;5056718;28;20806;-74
2021/06/11 06:06:34;;;;;;;18.90;16.90;;;20.80;99.90;;;;;;5058475;28;20841;-76
2021/06/11 06:09:02;;;;;;;18.27;15.80;;;21.20;99.90;;;;;;5064228;28;20454;-77
2021/06/11 06:11:29;;;;;;;16.93;14.67;;;21.80;99.90;;;;;;5074594;28;20467;-78
2021/06/11 06:13:56;;;;;;;15.50;14.00;;;22.30;99.10;;;;;;5072604;28;20452;-76
2021/06/11 06:16:30;;;;;;;16.07;14.40;;;22.70;97.70;;;;;;5058287;28;20473;-77
2021/06/11 06:18:58;;;;;;;15.23;13.77;;;22.90;96.00;;;;;;5059874;28;20445;-77
2021/06/11 06:21:25;;;;;;;15.90;14.30;;;23.10;96.20;;;;;;5051337;28;20466;-77
2021/06/11 06:23:52;;;;;;;18.43;15.97;;;23.40;94.40;;;;;;5070326;28;20474;-77
2021/06/11 06:26:19;;;;;;;21.20;17.63;;;23.90;92.20;;;;;;5055505;28;20562;-78
2021/06/11 06:28:46;;;;;;;17.37;15.67;;;24.00;91.40;;;;;;5066238;28;20482;-77
2021/06/11 06:31:13;;;;;;;18.40;16.60;;;24.20;90.80;;;;;;5072251;28;21028;-77
2021/06/11 06:33:41;;;;;;;18.23;16.40;;;24.20;90.80;;;;;;5061354;28;20483;-77
2021/06/11 06:36:09;;;;;;;17.87;16.17;;;24.10;91.20;;;;;;5065197;28;20465;-75
2021/06/11 06:38:37;;;;;;;16.97;15.27;;;24.00;90.90;;;;;;5068566;28;20511;-77
2021/06/11 06:41:07;;;;;;;17.10;15.30;;;24.10;90.30;;;;;;5041213;28;20848;-77
2021/06/11 06:43:38;;;;;;;18.63;16.63;;;24.00;91.00;;;;;;5064726;28;20459;-76
2021/06/11 06:46:05;;;;;;;17.50;15.63;;;24.00;90.50;;;;;;5075687;28;20527;-78
2021/06/11 06:48:32;;;;;;;17.10;15.50;;;23.90;91.00;;;;;;5068254;28;20501;-76
2021/06/11 06:50:59;;;;;;;17.47;15.73;;;23.90;91.30;;;;;;5058827;28;20554;-78
2021/06/11 06:53:28;;;;;;;16.83;15.20;;;23.80;91.20;;;;;;5052241;28;20439;-77
2021/06/11 06:55:55;;;;;;;16.87;14.90;;;23.80;91.80;;;;;;5051977;28;20499;-78
2021/06/11 06:58:22;;;;;;;15.40;13.77;;;23.80;92.40;;;;;;5057014;28;20455;-77
2021/06/11 07:00:52;;;;;;;15.73;14.13;;;23.80;91.90;;;;;;5048175;28;20459;-78
2021/06/11 07:03:19;;;;;;;18.17;15.10;;;23.80;91.40;;;;;;5052700;28;20430;-78
2021/06/11 07:05:46;;;;;;;16.83;14.70;;;23.80;91.20;;;;;;5044734;28;20508;-79
2021/06/11 07:08:14;;;;;;;16.40;14.80;;;23.90;91.30;;;;;;5068726;28;20805;-79
2021/06/11 07:10:42;;;;;;;17.57;15.90;;;23.90;91.30;;;;;;5067494;28;20502;-78
2021/06/11 07:13:13;;;;;;;15.70;14.20;;;23.90;91.80;;;;;;5051466;28;21000;-79
2021/06/11 07:15:40;;;;;;;16.07;14.43;;;23.80;92.00;;;;;;5056686;28;20475;-78
2021/06/11 07:18:10;;;;;;;16.37;14.77;;;23.80;91.60;;;;;;5037388;28;20534;-78
2021/06/11 07:20:37;;;;;;;15.90;14.37;;;23.80;91.70;;;;;;5059620;28;21022;-78
2021/06/11 07:23:06;;;;;;;15.90;14.30;;;23.90;91.60;;;;;;5067873;28;20446;-77
2021/06/11 07:25:36;;;;;;;17.30;13.67;;;24.00;91.20;;;;;;5076185;28;20466;-79
2021/06/11 07:28:06;;;;;;;16.57;14.87;;;23.90;90.60;;;;;;5065381;28;20463;-80
2021/06/11 07:30:36;;;;;;;17.00;14.80;;;23.90;90.40;;;;;;5066416;27;20845;-79
2021/06/11 07:33:06;;;;;;;17.80;15.03;;;23.90;90.40;;;;;;5060035;28;20440;-77
2021/06/11 07:35:33;;;;;;;17.63;15.33;;;23.90;90.50;;;;;;5076996;28;20465;-77
2021/06/11 07:38:00;;;;;;;15.23;13.63;;;24.00;89.30;;;;;;5072066;28;20449;-78
2021/06/11 07:40:29;;;;;;;17.83;14.47;;;24.00;89.60;;;;;;5085779;28;20459;-79
2021/06/11 07:42:56;;;;;;;19.17;15.07;;;24.10;90.20;;;;;;5060692;28;20424;-78
2021/06/11 07:45:24;;;;;;;16.90;15.30;;;24.20;90.70;;;;;;5056358;28;20479;-77
2021/06/11 07:47:51;;;;;;;18.53;16.73;;;24.30;90.40;;;;;;5059668;28;20489;-79
2021/06/11 07:50:19;;;;;;;15.90;14.27;;;24.20;90.50;;;;;;5086949;28;20985;-81
2021/06/11 07:52:51;;;;;;;17.93;16.17;;;24.30;90.70;;;;;;5080282;28;20473;-79
2021/06/11 07:55:25;;;;;;;17.07;14.97;;;24.30;90.00;;;;;;5061627;28;20463;-81
2021/06/11 07:57:55;;;;;;;17.10;15.30;;;24.50;90.10;;;;;;5072382;28;20443;-79
2021/06/11 08:00:23;;;;;;;16.07;14.47;;;24.60;90.10;;;;;;5075179;28;20496;-78
2021/06/11 08:02:56;;;;;;;17.23;15.13;;;24.70;88.10;;;;;;5074740;28;20504;-78
2021/06/11 08:05:31;;;;;;;16.97;14.57;;;24.70;86.80;;;;;;5071035;28;20489;-80
2021/06/11 08:07:58;;;;;;;17.27;15.67;;;24.70;87.80;;;;;;5076856;28;20464;-79
2021/06/11 08:10:31;;;;;;;16.17;14.57;;;24.90;85.50;;;;;;5056401;28;20464;-80
2021/06/11 08:13:02;;;;;;;17.13;14.77;;;25.10;82.20;;;;;;5058445;28;20472;-79
2021/06/11 08:15:34;;;;;;;19.63;16.07;;;25.10;84.90;;;;;;5057573;28;20455;-78
2021/06/11 08:18:04;;;;;;;16.03;14.40;;;25.00;83.80;;;;;;5076791;28;20441;-80
2021/06/11 08:20:43;;;;;;;17.37;15.47;;;25.10;83.80;;;;;;5052316;28;20504;-80
2021/06/11 08:23:31;;;;;;;19.63;17.53;;;25.10;81.40;;;;;;5053968;28;20427;-79
2021/06/11 08:26:02;;;;;;;18.30;16.50;;;25.20;83.10;;;;;;5073720;28;20493;-77
2021/06/11 08:28:32;;;;;;;17.40;15.60;;;25.30;81.20;;;;;;5057966;28;20480;-79
2021/06/11 08:30:59;;;;;;;17.37;15.27;;;25.40;79.40;;;;;;5058174;28;20991;-80
2021/06/11 08:33:29;;;;;;;18.07;16.27;;;25.30;78.60;;;;;;5054510;28;20933;-79
2021/06/11 08:35:58;;;;;;;16.33;14.00;;;25.40;79.40;;;;;;5046286;28;20477;-79
2021/06/11 08:38:28;;;;;;;16.10;14.40;;;25.50;79.10;;;;;;5059029;28;20971;-79
2021/06/11 08:41:12;;;;;;;16.77;15.20;;;25.50;73.70;;;;;;5056662;28;20867;-81
2021/06/11 08:43:40;;;;;;;16.67;14.97;;;25.50;73.80;;;;;;5054203;28;20436;-78
2021/06/11 08:46:10;;;;;;;15.30;13.77;;;25.40;72.10;;;;;;5061887;28;20988;-80
2021/06/11 08:48:41;;;;;;;17.97;16.17;;;25.60;75.80;;;;;;5054531;28;20867;-78
2021/06/11 08:51:10;;;;;;;18.50;16.40;;;25.50;78.70;;;;;;5061134;28;21188;-80
2021/06/11 08:53:39;;;;;;;19.03;17.13;;;25.40;80.50;;;;;;5053584;28;20431;-78
2021/06/11 08:56:09;;;;;;;17.27;15.47;;;25.60;81.40;;;;;;5053574;28;20465;-80
2021/06/11 08:58:40;;;;;;;16.33;13.83;;;25.70;81.20;;;;;;5055474;28;20451;-79
2021/06/11 09:01:28;;;;;;;18.83;16.73;;;25.70;81.40;;;;;;5073660;28;20462;-80
2021/06/11 09:03:57;;;;;;;18.10;16.20;;;25.80;78.90;;;;;;5053152;28;20435;-79
2021/06/11 09:06:31;;;;;;;18.60;14.80;;;25.90;78.80;;;;;;5051727;28;20544;-80
2021/06/11 09:09:03;;;;;;;18.60;16.73;;;25.90;77.90;;;;;;5060521;28;20825;-79
2021/06/11 09:11:36;;;;;;;17.73;16.03;;;25.90;76.80;;;;;;5076394;28;20470;-79
2021/06/11 09:14:13;;;;;;;18.73;16.83;;;25.90;78.80;;;;;;5074237;28;20437;-80
2021/06/11 09:16:55;;;;;;;17.67;15.97;;;25.90;77.40;;;;;;5077816;28;20550;-79
2021/06/11 09:19:33;;;;;;;20.07;18.03;;;26.10;79.30;;;;;;5044687;28;20431;-77
2021/06/11 09:22:02;;;;;;;18.70;16.90;;;26.10;78.40;;;;;;5052159;28;20446;-79
2021/06/11 09:24:32;;;;;;;21.27;18.00;;;26.10;76.00;;;;;;5058435;28;20446;-79
2021/06/11 09:27:12;;;;;;;18.30;16.50;;;26.10;74.20;;;;;;5029403;28;20435;-77
2021/06/11 09:29:42;;;;;;;18.63;16.73;;;26.10;76.50;;;;;;5077518;28;20820;-78
2021/06/11 09:32:21;;;;;;;16.20;14.30;;;26.10;74.40;;;;;;5065116;28;20467;-81
2021/06/11 09:34:51;;;;;;;17.10;15.30;;;26.30;75.10;;;;;;5058525;28;20457;-80
2021/06/11 09:37:30;;;;;;;17.00;15.40;;;26.30;75.80;;;;;;5066561;28;20462;-79
2021/06/11 09:40:01;;;;;;;18.23;16.40;;;26.20;71.00;;;;;;5065729;28;20474;-79
2021/06/11 09:42:34;;;;;;;18.17;16.27;;;26.30;74.40;;;;;;5066034;28;20457;-79
2021/06/11 09:45:08;;;;;;;17.63;15.83;;;26.30;74.70;;;;;;5067335;28;20463;-79
2021/06/11 09:47:42;;;;;;;19.20;16.17;;;26.40;76.00;;;;;;5068781;28;20995;-80
2021/06/11 09:50:37;;;;;;;17.57;15.83;;;26.50;74.10;;;;;;5046047;28;20508;-77
2021/06/11 09:53:09;;;;;;;15.93;14.33;;;26.40;72.70;;;;;;5058714;28;20432;-79
2021/06/11 09:55:39;;;;;;;18.30;16.60;;;26.30;72.60;;;;;;5061271;28;20462;-78
2021/06/11 09:58:22;;;;;;;16.80;15.10;;;26.40;73.70;;;;;;5052956;28;20450;-80
2021/06/11 10:00:54;;;;;;;16.90;15.30;;;26.50;72.20;;;;;;5062040;28;20466;-79
2021/06/11 10:03:25;;;;;;;16.07;14.47;;;26.50;73.60;;;;;;5064721;28;20431;-78
2021/06/11 10:06:02;;;;;;;15.37;13.63;;;26.40;73.80;;;;;;5067417;28;20467;-79
2021/06/11 10:08:33;;;;;;;17.83;16.13;;;26.30;74.60;;;;;;5074242;28;20454;-78
2021/06/11 10:11:06;;;;;;;17.90;14.80;;;26.40;73.40;;;;;;5069798;28;20526;-79
2021/06/11 10:13:34;;;;;;;16.23;14.53;;;26.40;72.30;;;;;;5051952;28;20438;-79
2021/06/11 10:16:13;;;;;;;16.83;15.00;;;26.60;74.00;;;;;;5040818;28;20557;-80
2021/06/11 10:18:53;;;;;;;17.53;15.77;;;26.70;73.30;;;;;;5067692;28;20458;-80
2021/06/11 10:21:28;;;;;;;17.83;16.00;;;26.80;73.50;;;;;;5073054;28;20570;-80
2021/06/11 10:23:59;;;;;;;18.90;16.23;;;26.90;72.70;;;;;;5069004;28;20519;-79
2021/06/11 10:26:27;;;;;;;16.43;15.00;;;27.10;73.10;;;;;;5074213;28;20469;-79
2021/06/11 10:29:03;;;;;;;16.03;14.53;;;27.30;69.40;;;;;;5067487;28;20553;-77
2021/06/11 10:31:36;;;;;;;16.30;13.87;;;27.30;67.10;;;;;;5061180;28;20470;-78
2021/06/11 10:34:04;;;;;;;14.43;13.10;;;27.40;67.80;;;;;;5052341;28;20628;-77
2021/06/11 10:36:46;;;;;;;18.57;16.10;;;27.50;66.10;;;;;;5065170;28;20484;-80
2021/06/11 10:39:25;;;;;;;18.47;16.57;;;27.60;64.70;;;;;;5055424;28;20458;-77
2021/06/11 10:42:03;;;;;;;15.67;13.33;;;27.50;66.10;;;;;;5070608;28;20458;-78
2021/06/11 10:44:45;;;;;;;15.67;14.13;;;27.30;68.50;;;;;;5051372;28;20466;-76
2021/06/11 10:47:18;;;;;;;15.30;13.77;;;27.10;67.50;;;;;;5065760;28;20753;-77
2021/06/11 10:50:04;;;;;;;15.40;13.87;;;27.20;69.00;;;;;;5052709;28;20465;-78
2021/06/11 10:52:47;;;;;;;14.80;12.03;;;27.10;68.90;;;;;;5025863;28;20474;-77
2021/06/11 10:55:17;;;;;;;14.10;12.70;;;27.20;70.30;;;;;;5053113;28;20463;-77
2021/06/11 10:57:53;;;;;;;13.63;12.20;;;27.20;69.30;;;;;;5050257;28;20550;-78
2021/06/11 11:00:26;;;;;;;12.70;11.60;;;27.30;69.10;;;;;;5059436;28;20474;-77
2021/06/11 11:02:57;;;;;;;12.13;9.93;;;27.20;69.80;;;;;;5060785;28;20438;-76
2021/06/11 11:05:33;;;;;;;12.33;10.07;;;27.20;64.60;;;;;;5057904;28;20474;-79
2021/06/11 11:08:05;;;;;;;10.00;9.00;;;27.40;65.10;;;;;;5041898;28;20827;-77
2021/06/11 11:10:34;;;;;;;11.53;10.33;;;27.40;63.10;;;;;;5059160;28;20516;-76
2021/06/11 11:13:31;;;;;;;11.50;10.30;;;27.60;64.50;;;;;;5078743;28;20484;-77
2021/06/11 11:15:58;;;;;;;10.10;9.20;;;27.60;65.00;;;;;;5056449;28;20490;-79
2021/06/11 11:18:32;;;;;;;13.80;9.73;;;27.50;66.80;;;;;;5057890;28;20538;-77
2021/06/11 11:21:00;;;;;;;13.30;9.90;;;27.60;65.40;;;;;;5053212;28;20471;-76
2021/06/11 11:23:28;;;;;;;13.30;9.57;;;27.70;63.40;;;;;;5052667;28;20443;-78
2021/06/11 11:25:55;;;;;;;11.33;10.17;;;27.70;63.10;;;;;;5035490;28;20582;-77
2021/06/11 11:28:24;;;;;;;11.37;10.23;;;27.90;62.50;;;;;;5059570;28;20998;-79
2021/06/11 11:31:07;;;;;;;11.40;9.33;;;27.90;65.00;;;;;;5045080;28;20875;-77
2021/06/11 11:33:34;;;;;;;10.47;9.40;;;27.70;65.40;;;;;;5048261;28;20427;-78
2021/06/11 11:36:04;;;;;;;11.13;10.03;;;27.80;62.00;;;;;;5052035;28;20534;-77
2021/06/11 11:38:34;;;;;;;10.37;9.37;;;27.70;61.70;;;;;;5058860;28;20507;-78
2021/06/11 11:41:01;;;;;;;11.87;10.67;;;27.80;60.70;;;;;;5049457;28;20463;-79
2021/06/11 11:43:30;;;;;;;10.73;9.73;;;27.80;63.40;;;;;;5035516;28;20442;-78
2021/06/11 11:46:00;;;;;;;9.20;8.33;;;27.80;64.50;;;;;;5064782;28;20553;-77
2021/06/11 11:48:29;;;;;;;11.13;8.30;;;27.90;61.80;;;;;;5064138;28;20455;-77
2021/06/11 11:51:00;;;;;;;10.03;8.00;;;28.00;60.00;;;;;;5057116;28;20473;-77
2021/06/11 11:53:30;;;;;;;9.73;8.77;;;28.10;62.10;;;;;;5057558;28;20462;-78
2021/06/11 11:55:58;;;;;;;8.73;7.97;;;28.10;60.60;;;;;;5048714;28;20876;-80
2021/06/11 11:58:28;;;;;;;10.10;9.13;;;28.10;59.90;;;;;;5048603;28;20501;-78
2021/06/11 12:01:00;;;;;;;8.40;7.50;;;28.10;60.00;;;;;;5057762;28;20622;-78
2021/06/11 12:03:27;;;;;;;8.73;7.80;;;28.10;61.10;;;;;;5056319;28;20442;-77
2021/06/11 12:05:57;;;;;;;7.70;6.93;;;28.10;58.60;;;;;;5053856;28;20586;-76
2021/06/11 12:08:25;;;;;;;9.83;7.90;;;28.10;57.50;;;;;;5066453;28;20566;-77
2021/06/11 12:10:53;;;;;;;11.37;8.00;;;28.10;59.70;;;;;;5082995;28;20531;-76
2021/06/11 12:13:20;;;;;;;8.53;7.70;;;28.10;58.60;;;;;;5061819;28;20465;-78
2021/06/11 12:15:47;;;;;;;8.80;8.00;;;28.10;61.50;;;;;;5069748;28;20908;-79
2021/06/11 12:18:17;;;;;;;12.43;7.70;;;28.00;58.90;;;;;;5054024;28;20494;-76
2021/06/11 12:20:44;;;;;;;6.40;5.90;;;28.10;60.60;;;;;;5053161;28;20835;-77
2021/06/11 12:23:11;;;;;;;8.37;6.97;;;28.20;58.80;;;;;;5054947;28;20435;-76
2021/06/11 12:25:37;;;;;;;7.73;6.93;;;28.30;59.50;;;;;;5058555;28;20470;-76
2021/06/11 12:28:04;;;;;;;6.67;5.97;;;28.30;59.80;;;;;;5058168;28;20455;-76
2021/06/11 12:30:31;;;;;;;7.23;6.53;;;28.40;57.00;;;;;;5042424;28;20470;-76
2021/06/11 12:32:58;;;;;;;7.13;6.43;;;28.50;55.10;;;;;;5069008;28;20462;-76
2021/06/11 12:35:27;;;;;;;9.20;8.33;;;28.50;56.90;;;;;;5057500;28;20458;-76
2021/06/11 12:37:54;;;;;;;9.97;7.27;;;28.50;58.10;;;;;;5068230;28;20451;-76
2021/06/11 12:40:22;;;;;;;7.80;6.80;;;28.40;58.50;;;;;;5058984;28;20532;-79
2021/06/11 12:42:52;;;;;;;9.00;7.40;;;28.30;59.70;;;;;;5083138;22;20493;-72
2021/06/11 12:45:20;;;;;;;8.57;6.67;;;28.30;54.30;;;;;;5054211;28;20459;-70
2021/06/11 12:47:47;;;;;;;7.73;6.90;;;28.30;56.20;;;;;;5049623;28;20452;-70
2021/06/11 12:50:14;;;;;;;7.13;6.43;;;28.30;55.90;;;;;;5033214;28;20448;-70